Time;durP1;ratioP1;P1;durP2;ratioP2;P2;SDS_P1;SDS_P2;PMS_P1;PMS_P2;Temp;Humidity;BMP_temperature;BMP_pressure;BME280_temperature;BME280_humidity;BME280_pressure;Samples;Min_cycle;Max_cycle;Signal;HPM_P1;HPM_P2
2023/03/23 00:01:54;;;;;;;;;;;;;;;7.00;100.00;99776.78;5094387;28;835;-57
2023/03/23 00:04:22;;;;;;;;;;;;;;;6.99;100.00;99780.69;5092327;28;856;-56
2023/03/23 00:06:49;;;;;;;;;;;;;;;6.97;100.00;99780.28;5093576;28;808;-57
2023/03/23 00:09:17;;;;;;;;;;;;;;;7.02;100.00;99774.44;5093401;28;1222;-57
2023/03/23 00:11:44;;;;;;;;;;;;;;;7.06;100.00;99771.72;5093583;28;815;-56
2023/03/23 00:14:13;;;;;;;;;;;;;;;7.07;100.00;99768.59;5093391;28;819;-56
2023/03/23 00:16:44;;;;;;;;;;;;;;;7.08;100.00;99770.19;5093375;28;832;-56
2023/03/23 00:19:14;;;;;;;;;;;;;;;7.06;100.00;99772.53;5092973;28;1967;-56
2023/03/23 00:21:43;;;;;;;;;;;;;;;7.07;100.00;99763.09;5092883;28;1098;-56
2023/03/23 00:24:16;;;;;;;;;;;;;;;7.09;100.00;99769.00;5092782;28;926;-56
2023/03/23 00:26:46;;;;;;;;;;;;;;;7.10;100.00;99762.31;5092830;28;934;-57
2023/03/23 00:29:16;;;;;;;;;;;;;;;7.10;100.00;99762.31;5092994;28;851;-57
2023/03/23 00:31:46;;;;;;;;;;;;;;;7.09;100.00;99757.22;5092839;28;1076;-57
2023/03/23 00:34:18;;;;;;;;;;;;;;;7.08;100.00;99756.44;5092951;28;894;-57
2023/03/23 00:36:48;;;;;;;;;;;;;;;7.10;100.00;99756.84;5092718;28;886;-57
2023/03/23 00:39:18;;;;;;;;;;;;;;;7.13;100.00;99756.09;5092608;28;1910;-57
2023/03/23 00:41:45;;;;;;;;;;;;;;;7.19;100.00;99759.28;5092538;28;864;-57
2023/03/23 00:44:16;;;;;;;;;;;;;;;7.23;100.00;99754.56;5092568;28;856;-57
2023/03/23 00:46:44;;;;;;;;;;;;;;;7.26;100.00;99755.81;5092831;28;918;-57
2023/03/23 00:49:12;;;;;;;;;;;;;;;7.27;100.00;99749.91;5092577;28;867;-57
2023/03/23 00:51:39;;;;;;;;;;;;;;;7.28;100.00;99753.47;5092470;28;895;-57
2023/03/23 00:54:06;;;;;;;;;;;;;;;7.26;100.00;99753.84;5092482;28;871;-57
2023/03/23 00:56:32;;;;;;;;;;;;;;;7.26;100.00;99748.34;5074085;28;892;-56
2023/03/23 00:58:59;;;;;;;;;;;;;;;7.26;100.00;99753.06;5092368;28;1890;-56
2023/03/23 01:01:25;;;;;;;;;;;;;;;7.28;100.00;99745.22;5092354;28;930;-57
2023/03/23 01:04:00;;;;;;;;;;;;;;;7.32;100.00;99748.78;5092408;28;891;-57
2023/03/23 01:06:30;;;;;;;;;;;;;;;7.33;100.00;99747.59;5073993;28;781;-57
2023/03/23 01:08:57;;;;;;;;;;;;;;;7.31;100.00;99745.22;5092294;28;1048;-57
2023/03/23 01:11:25;;;;;;;;;;;;;;;7.30;100.00;99745.63;5091891;28;1278;-57
2023/03/23 01:13:52;;;;;;;;;;;;;;;7.30;100.00;99746.41;5092046;28;827;-57
2023/03/23 01:16:19;;;;;;;;;;;;;;;7.28;100.00;99739.72;5091848;28;816;-57
2023/03/23 01:18:46;;;;;;;;;;;;;;;7.31;100.00;99745.22;5091839;28;1973;-57
2023/03/23 01:21:15;;;;;;;;;;;;;;;7.32;100.00;99744.06;5091899;28;871;-56
2023/03/23 01:23:42;;;;;;;;;;;;;;;7.28;100.00;99737.75;5091785;28;862;-57
2023/03/23 01:26:26;;;;;;;;;;;;;;;7.20;100.00;99738.84;5091851;28;874;-58
2023/03/23 01:28:53;;;;;;;;;;;;;;;7.19;100.00;99737.28;5073651;28;1260;-57
2023/03/23 01:31:21;;;;;;;;;;;;;;;7.19;100.00;99739.22;5091783;28;815;-57
2023/03/23 01:33:50;;;;;;;;;;;;;;;7.15;100.00;99734.50;5091759;28;867;-57
2023/03/23 01:36:18;;;;;;;;;;;;;;;7.14;100.00;99732.91;5091672;28;935;-57
2023/03/23 01:38:46;;;;;;;;;;;;;;;7.15;100.00;99736.47;5091650;28;1984;-57
2023/03/23 01:41:14;;;;;;;;;;;;;;;7.13;100.00;99736.06;5091622;28;808;-57
2023/03/23 01:43:56;;;;;;;;;;;;;;;7.14;100.00;99730.16;5091666;28;937;-57
2023/03/23 01:46:22;;;;;;;;;;;;;;;7.16;100.00;99735.28;5091659;28;823;-58
2023/03/23 01:48:50;;;;;;;;;;;;;;;7.18;100.00;99734.91;5091583;28;816;-58
2023/03/23 01:51:18;;;;;;;;;;;;;;;7.15;100.00;99739.22;5091474;28;892;-58
2023/03/23 01:53:50;;;;;;;;;;;;;;;7.12;100.00;99732.50;5091419;28;831;-58
2023/03/23 01:56:20;;;;;;;;;;;;;;;7.11;100.00;99736.44;5073403;28;1287;-57
2023/03/23 01:58:47;;;;;;;;;;;;;;;7.08;100.00;99734.47;5091542;28;1950;-56
2023/03/23 02:01:14;;;;;;;;;;;;;;;7.09;100.00;99740.75;5073376;28;1183;-57
2023/03/23 02:03:43;;;;;;;;;;;;;;;7.07;100.00;99737.59;5073312;28;1160;-58
2023/03/23 02:06:09;;;;;;;;;;;;;;;7.04;100.00;99738.31;5091651;28;800;-58
2023/03/23 02:08:37;;;;;;;;;;;;;;;7.00;100.00;99732.81;5073629;28;1405;-58
2023/03/23 02:11:13;;;;;;;;;;;;;;;7.01;100.00;99742.63;5091358;28;1523;-58
2023/03/23 02:13:40;;;;;;;;;;;;;;;7.00;100.00;99735.56;5091386;28;871;-57
2023/03/23 02:16:27;;;;;;;;;;;;;;;7.04;100.00;99738.31;5091331;28;871;-57
2023/03/23 02:18:56;;;;;;;;;;;;;;;7.07;100.00;99740.34;5091260;28;1905;-58
2023/03/23 02:21:38;;;;;;;;;;;;;;;7.07;100.00;99741.13;5091316;28;859;-58
2023/03/23 02:24:13;;;;;;;;;;;;;;;7.08;100.00;99745.47;5091192;28;808;-58
2023/03/23 02:26:47;;;;;;;;;;;;;;;7.12;100.00;99739.97;5091230;28;828;-58
2023/03/23 02:29:13;;;;;;;;;;;;;;;7.15;100.00;99750.22;5095207;28;835;-58
2023/03/23 02:31:52;;;;;;;;;;;;;;;7.15;100.00;99747.47;5095116;28;914;-58
2023/03/23 02:34:22;;;;;;;;;;;;;;;7.11;100.00;99750.19;5095103;28;812;-58
2023/03/23 02:36:59;;;;;;;;;;;;;;;7.11;100.00;99752.94;5094970;28;899;-58
2023/03/23 02:39:42;;;;;;;;;;;;;;;7.12;100.00;99749.00;5095137;28;1969;-58
2023/03/23 02:42:13;;;;;;;;;;;;;;;7.14;100.00;99748.63;5094908;28;848;-58
2023/03/23 02:44:41;;;;;;;;;;;;;;;7.14;100.00;99751.38;5095409;28;890;-58
2023/03/23 02:47:13;;;;;;;;;;;;;;;7.15;100.00;99750.22;5095292;28;858;-58
2023/03/23 02:49:42;;;;;;;;;;;;;;;7.12;100.00;99754.50;5094799;28;1039;-58
2023/03/23 02:52:14;;;;;;;;;;;;;;;7.13;100.00;99766.28;5076425;28;2042;-58
2023/03/23 02:54:42;;;;;;;;;;;;;;;7.12;100.00;99757.25;5094652;28;863;-59
2023/03/23 02:57:09;;;;;;;;;;;;;;;7.13;100.00;99761.59;5094626;28;839;-59
2023/03/23 02:59:36;;;;;;;;;;;;;;;7.15;100.00;99758.47;5094523;28;1953;-59
2023/03/23 03:02:32;;;;;;;;;;;;;;;7.19;100.00;99766.72;5094911;28;906;-59
2023/03/23 03:05:06;;;;;;;;;;;;;;;7.08;100.00;99747.41;5077399;28;1251;-55
2023/03/23 03:07:35;;;;;;;;;;;;;;;7.14;100.00;99765.13;5094510;28;819;-56
2023/03/23 03:10:04;;;;;;;;;;;;;;;7.12;100.00;99753.72;5094534;28;1110;-56
2023/03/23 03:12:43;;;;;;;;;;;;;;;7.07;100.00;99763.09;5094393;28;826;-56
2023/03/23 03:15:18;;;;;;;;;;;;;;;7.07;100.00;99762.31;5094348;28;831;-57
2023/03/23 03:17:53;;;;;;;;;;;;;;;7.08;100.00;99767.44;5094447;28;1914;-56
2023/03/23 03:20:21;;;;;;;;;;;;;;;7.06;100.00;99766.22;5094562;28;855;-58
2023/03/23 03:22:48;;;;;;;;;;;;;;;7.05;100.00;99773.69;5094086;28;836;-57
2023/03/23 03:25:16;;;;;;;;;;;;;;;7.06;100.00;99775.28;5094391;28;1210;-57
2023/03/23 03:27:45;;;;;;;;;;;;;;;7.06;100.00;99775.28;5076287;28;2127;-57
2023/03/23 03:30:14;;;;;;;;;;;;;;;7.07;100.00;99776.84;5094039;28;870;-57
2023/03/23 03:32:46;;;;;;;;;;;;;;;7.06;100.00;99767.03;5094029;28;827;-57
2023/03/23 03:35:12;;;;;;;;;;;;;;;7.05;100.00;99775.66;5093885;28;800;-57
2023/03/23 03:37:40;;;;;;;;;;;;;;;7.05;100.00;99770.94;5093859;28;2002;-56
2023/03/23 03:40:11;;;;;;;;;;;;;;;7.04;100.00;99774.88;5092576;28;835;-56
2023/03/23 03:42:42;;;;;;;;;;;;;;;7.03;100.00;99775.22;5093658;28;926;-56
2023/03/23 03:45:09;;;;;;;;;;;;;;;7.02;100.00;99774.44;5093718;28;867;-56
2023/03/23 03:47:36;;;;;;;;;;;;;;;6.99;100.00;99777.94;5093622;28;863;-56
2023/03/23 03:50:03;;;;;;;;;;;;;;;6.99;100.00;99769.69;5093595;28;832;-56
2023/03/23 03:52:30;;;;;;;;;;;;;;;7.04;100.00;99776.81;5093544;28;990;-54
2023/03/23 03:54:56;;;;;;;;;;;;;;;7.02;100.00;99768.97;5093601;28;824;-55
2023/03/23 03:57:23;;;;;;;;;;;;;;;7.01;100.00;99770.13;5093433;28;1906;-56
2023/03/23 03:59:51;;;;;;;;;;;;;;;6.99;100.00;99777.16;5093491;28;839;-56
2023/03/23 04:02:19;;;;;;;;;;;;;;;6.98;100.00;99779.13;5093362;28;859;-57
2023/03/23 04:04:47;;;;;;;;;;;;;;;6.98;100.00;99778.31;5093374;28;840;-57
2023/03/23 04:07:16;;;;;;;;;;;;;;;6.98;100.00;99778.31;5093260;28;890;-56
2023/03/23 04:09:43;;;;;;;;;;;;;;;6.95;100.00;99777.13;5093507;28;1209;-56
2023/03/23 04:12:10;;;;;;;;;;;;;;;6.93;100.00;99776.69;5093893;28;859;-57
2023/03/23 04:14:36;;;;;;;;;;;;;;;6.93;100.00;99782.19;5093637;28;795;-56
2023/03/23 04:17:03;;;;;;;;;;;;;;;6.93;100.00;99780.25;5093742;28;841;-55
2023/03/23 04:19:32;;;;;;;;;;;;;;;6.93;100.00;99785.75;5075083;28;1963;-57
2023/03/23 04:21:59;;;;;;;;;;;;;;;6.90;100.00;99780.22;5093057;28;894;-56
2023/03/23 04:24:28;;;;;;;;;;;;;;;6.90;100.00;99785.72;5093089;28;853;-57
2023/03/23 04:26:54;;;;;;;;;;;;;;;6.89;100.00;99787.69;5092922;28;878;-56
2023/03/23 04:29:20;;;;;;;;;;;;;;;6.91;100.00;99792.78;5092906;28;832;-56
2023/03/23 04:31:47;;;;;;;;;;;;;;;6.95;100.00;99793.59;5092995;28;835;-56
2023/03/23 04:34:14;;;;;;;;;;;;;;;7.01;100.00;99794.06;5093058;28;860;-57
2023/03/23 04:36:40;;;;;;;;;;;;;;;7.07;100.00;99798.81;5092925;28;883;-56
2023/03/23 04:39:09;;;;;;;;;;;;;;;7.13;100.00;99786.31;5092847;28;1931;-57
2023/03/23 04:41:37;;;;;;;;;;;;;;;7.20;100.00;99796.59;5092677;28;820;-57
2023/03/23 04:44:05;;;;;;;;;;;;;;;7.23;100.00;99795.81;5092540;28;815;-57
2023/03/23 04:46:32;;;;;;;;;;;;;;;7.23;100.00;99804.06;5092544;28;839;-57
2023/03/23 04:49:02;;;;;;;;;;;;;;;7.22;100.00;99804.47;5092499;28;828;-57
2023/03/23 04:51:28;;;;;;;;;;;;;;;7.23;100.00;99806.03;5091974;28;867;-57
2023/03/23 04:53:56;;;;;;;;;;;;;;;7.22;100.00;99815.47;5092457;28;823;-57
2023/03/23 04:56:22;;;;;;;;;;;;;;;7.22;100.00;99812.72;5092418;28;858;-56
2023/03/23 04:58:49;;;;;;;;;;;;;;;7.19;100.00;99817.00;5092320;28;1947;-57
2023/03/23 05:01:17;;;;;;;;;;;;;;;7.21;100.00;99817.44;5092625;28;882;-55
2023/03/23 05:03:44;;;;;;;;;;;;;;;7.23;100.00;99817.03;5092177;28;879;-57
2023/03/23 05:06:11;;;;;;;;;;;;;;;7.31;100.00;99821.41;5092485;28;811;-56
2023/03/23 05:08:41;;;;;;;;;;;;;;;7.28;100.00;99827.69;5092219;28;960;-57
2023/03/23 05:11:09;;;;;;;;;;;;;;;7.27;100.00;99824.13;5091831;28;1227;-57
2023/03/23 05:13:35;;;;;;;;;;;;;;;7.24;100.00;99829.63;5092045;28;859;-56
2023/03/23 05:16:06;;;;;;;;;;;;;;;7.20;100.00;99837.03;5092148;28;832;-57
2023/03/23 05:18:32;;;;;;;;;;;;;;;7.19;100.00;99840.94;5091968;28;2005;-56
2023/03/23 05:21:02;;;;;;;;;;;;;;;7.21;100.00;99844.09;5073888;28;863;-57
2023/03/23 05:23:33;;;;;;;;;;;;;;;7.24;100.00;99843.38;5091914;28;863;-57
2023/03/23 05:26:02;;;;;;;;;;;;;;;7.25;100.00;99840.22;5092101;28;989;-57
2023/03/23 05:28:30;;;;;;;;;;;;;;;7.29;100.00;99843.00;5073886;28;1326;-56
2023/03/23 05:30:57;;;;;;;;;;;;;;;7.35;100.00;99849.75;5091764;28;893;-56
2023/03/23 05:33:23;;;;;;;;;;;;;;;7.33;100.00;99850.09;5092014;28;874;-57
2023/03/23 05:35:50;;;;;;;;;;;;;;;7.31;100.00;99838.69;5091857;28;930;-57
2023/03/23 05:38:17;;;;;;;;;;;;;;;7.32;100.00;99851.28;5091711;28;1890;-57
2023/03/23 05:40:44;;;;;;;;;;;;;;;7.36;100.00;99845.81;5091780;28;875;-58
2023/03/23 05:43:11;;;;;;;;;;;;;;;7.36;100.00;99856.81;5091764;28;875;-58
2023/03/23 05:45:38;;;;;;;;;;;;;;;7.38;100.00;99857.22;5091695;28;857;-58
2023/03/23 05:48:05;;;;;;;;;;;;;;;7.42;100.00;99860.78;5091720;28;863;-58
2023/03/23 05:50:32;;;;;;;;;;;;;;;7.45;100.00;99867.50;5073603;28;1203;-58
2023/03/23 05:52:59;;;;;;;;;;;;;;;7.49;100.00;99874.63;5091634;28;839;-58
2023/03/23 05:55:27;;;;;;;;;;;;;;;7.56;100.00;99866.41;5091684;28;835;-58
2023/03/23 05:57:53;;;;;;;;;;;;;;;7.63;100.00;99870.41;5091445;28;1889;-58
2023/03/23 06:00:22;;;;;;;;;;;;;;;7.66;100.00;99864.94;5091556;28;882;-58
2023/03/23 06:02:50;;;;;;;;;;;;;;;7.76;100.00;99866.19;5093238;28;864;-58
2023/03/23 06:05:17;;;;;;;;;;;;;;;7.84;100.00;99867.81;5095638;28;878;-58
2023/03/23 06:07:44;;;;;;;;;;;;;;;7.88;100.00;99868.63;5077341;28;1231;-59
2023/03/23 06:10:11;;;;;;;;;;;;;;;7.88;100.00;99870.59;5095301;28;1269;-58
2023/03/23 06:12:39;;;;;;;;;;;;;;;7.89;100.00;99864.69;5095714;28;895;-58
2023/03/23 06:15:06;;;;;;;;;;;;;;;7.98;100.00;99869.88;5095507;28;800;-58
2023/03/23 06:17:33;;;;;;;;;;;;;;;8.07;100.00;99861.28;5095688;28;1917;-58
2023/03/23 06:20:00;;;;;;;;;;;;;;;8.10;100.00;99866.78;5095168;28;876;-58
2023/03/23 06:22:27;;;;;;;;;;;;;;;8.18;100.00;99868.41;5095468;28;807;-58
2023/03/23 06:24:53;;;;;;;;;;;;;;;8.24;100.00;99868.84;5095289;28;875;-58
2023/03/23 06:27:20;;;;;;;;;;;;;;;8.29;100.00;99873.22;5095455;28;860;-58
2023/03/23 06:29:46;;;;;;;;;;;;;;;8.38;100.00;99879.16;5095245;28;930;-58
2023/03/23 06:32:13;;;;;;;;;;;;;;;8.29;100.00;99879.50;5095223;28;867;-58
2023/03/23 06:34:43;;;;;;;;;;;;;;;8.22;100.00;99882.22;5095076;28;883;-58
2023/03/23 06:37:10;;;;;;;;;;;;;;;8.21;100.00;99882.59;5095297;28;895;-58
2023/03/23 06:39:38;;;;;;;;;;;;;;;8.16;100.00;99886.50;5094942;28;1882;-58
2023/03/23 06:42:08;;;;;;;;;;;;;;;8.12;100.00;99883.72;5095084;28;881;-58
2023/03/23 06:44:35;;;;;;;;;;;;;;;8.17;100.00;99885.31;5095155;28;866;-58
2023/03/23 06:47:02;;;;;;;;;;;;;;;8.13;100.00;99892.78;5094979;28;918;-58
2023/03/23 06:49:27;;;;;;;;;;;;;;;8.07;100.00;99897.84;5094768;28;831;-57
2023/03/23 06:51:55;;;;;;;;;;;;;;;8.02;100.00;99905.66;5094845;28;883;-58
2023/03/23 06:54:21;;;;;;;;;;;;;;;7.93;100.00;99895.78;5076490;28;1456;-58
2023/03/23 06:56:48;;;;;;;;;;;;;;;7.86;100.00;99897.72;5094964;28;824;-58
2023/03/23 06:59:15;;;;;;;;;;;;;;;7.89;100.00;99896.94;5094612;28;1885;-58
2023/03/23 07:01:40;;;;;;;;;;;;;;;7.95;100.00;99901.69;5076382;28;1211;-58
2023/03/23 07:04:07;;;;;;;;;;;;;;;8.08;100.00;99899.44;5094606;28;816;-58
2023/03/23 07:06:35;;;;;;;;;;;;;;;8.22;100.00;99907.00;5094515;28;823;-58
2023/03/23 07:09:00;;;;;;;;;;;;;;;8.13;100.00;99909.31;5094678;28;952;-58
2023/03/23 07:11:27;;;;;;;;;;;;;;;8.06;100.00;99909.25;5094275;28;1235;-58
2023/03/23 07:13:53;;;;;;;;;;;;;;;8.16;100.00;99908.53;5094045;28;827;-58
2023/03/23 07:16:45;;;;;;;;;;;;;;;8.25;100.00;99913.69;5094316;28;929;-58
2023/03/23 07:19:13;;;;;;;;;;;;;;;8.29;100.00;99911.75;5094050;28;1886;-58
2023/03/23 07:21:40;;;;;;;;;;;;;;;8.28;100.00;99910.97;5094205;28;827;-58
2023/03/23 07:24:11;;;;;;;;;;;;;;;8.46;100.00;99921.34;5094128;28;939;-58
2023/03/23 07:26:38;;;;;;;;;;;;;;;8.76;100.00;99910.06;5094129;28;867;-58
2023/03/23 07:29:06;;;;;;;;;;;;;;;9.16;100.00;99916.50;5094039;28;850;-58
2023/03/23 07:31:33;;;;;;;;;;;;;;;9.56;100.00;99920.13;5093972;28;880;-58
2023/03/23 07:33:58;;;;;;;;;;;;;;;9.90;100.00;99920.53;5093968;28;823;-58
2023/03/23 07:36:26;;;;;;;;;;;;;;;9.96;100.00;99920.91;5093892;28;895;-58
2023/03/23 07:38:52;;;;;;;;;;;;;;;10.21;100.00;99916.16;5093870;28;1941;-58
2023/03/23 07:41:24;;;;;;;;;;;;;;;10.51;100.00;99914.16;5093817;28;867;-58
2023/03/23 07:43:51;;;;;;;;;;;;;;;10.34;100.00;99919.31;5093904;28;811;-58
2023/03/23 07:46:18;;;;;;;;;;;;;;;10.21;100.00;99916.16;5093659;28;906;-56
2023/03/23 07:48:44;;;;;;;;;;;;;;;10.40;100.00;99923.25;5093597;28;871;-58
2023/03/23 07:51:11;;;;;;;;;;;;;;;10.41;100.00;99930.38;5093585;28;855;-58
2023/03/23 07:53:37;;;;;;;;;;;;;;;10.43;100.00;99924.41;5093612;28;911;-58
2023/03/23 07:56:04;;;;;;;;;;;;;;;10.49;100.00;99938.63;5093483;28;887;-58
2023/03/23 07:58:31;;;;;;;;;;;;;;;10.53;100.00;99942.16;5093349;28;1886;-58
2023/03/23 08:00:58;;;;;;;;;;;;;;;10.45;100.00;99943.38;5093445;28;880;-58
2023/03/23 08:03:24;;;;;;;;;;;;;;;10.55;100.00;99939.78;5093460;28;907;-58
2023/03/23 08:05:51;;;;;;;;;;;;;;;10.90;100.00;99941.63;5093363;28;911;-58
2023/03/23 08:08:16;;;;;;;;;;;;;;;11.04;100.00;99943.56;5093225;28;947;-58
2023/03/23 08:10:43;;;;;;;;;;;;;;;10.93;100.00;99945.59;5092995;28;1275;-58
2023/03/23 08:13:09;;;;;;;;;;;;;;;11.15;100.00;99938.75;5093359;28;855;-58
2023/03/23 08:15:37;;;;;;;;;;;;;;;11.51;100.00;99944.09;5074992;28;1211;-58
2023/03/23 08:18:04;;;;;;;;;;;;;;;11.55;100.00;99944.09;5092964;28;1963;-58
2023/03/23 08:20:32;;;;;;;;;;;;;;;11.34;100.00;99948.53;5074804;28;1243;-57
2023/03/23 08:22:59;;;;;;;;;;;;;;;10.81;100.00;99947.59;5092980;28;860;-58
2023/03/23 08:25:31;;;;;;;;;;;;;;;10.61;100.00;99949.25;5092380;28;851;-58
2023/03/23 08:27:59;;;;;;;;;;;;;;;10.61;100.00;99958.34;5092913;28;902;-58
2023/03/23 08:30:28;;;;;;;;;;;;;;;10.65;100.00;99957.53;5092842;28;878;-58
2023/03/23 08:32:56;;;;;;;;;;;;;;;10.86;100.00;99949.19;5093220;28;878;-59
2023/03/23 08:35:23;;;;;;;;;;;;;;;10.98;100.00;99950.72;5092957;28;852;-58
2023/03/23 08:37:54;;;;;;;;;;;;;;;11.28;100.00;99958.47;5092755;28;1943;-58
2023/03/23 08:40:22;;;;;;;;;;;;;;;11.43;100.00;99957.19;5074487;28;1192;-56
2023/03/23 08:42:49;;;;;;;;;;;;;;;11.52;100.00;99959.53;5074414;28;1191;-58
2023/03/23 08:45:17;;;;;;;;;;;;;;;11.19;100.00;99955.34;5092907;28;894;-58
2023/03/23 08:47:44;;;;;;;;;;;;;;;10.73;100.00;99967.38;5092393;28;902;-58
2023/03/23 08:50:13;;;;;;;;;;;;;;;10.52;100.00;99969.03;5092541;28;906;-58
2023/03/23 08:52:41;;;;;;;;;;;;;;;10.48;100.00;99962.72;5092434;28;847;-58
2023/03/23 08:55:08;;;;;;;;;;;;;;;10.60;100.00;99965.06;5092372;28;843;-58
2023/03/23 08:57:35;;;;;;;;;;;;;;;10.66;100.00;99956.34;5092327;28;1945;-58
2023/03/23 09:00:17;;;;;;;;;;;;;;;10.33;100.00;99967.47;5092379;28;871;-59
2023/03/23 09:02:50;;;;;;;;;;;;;;;10.05;100.00;99973.78;5092344;28;859;-59
2023/03/23 09:05:17;;;;;;;;;;;;;;;10.04;100.00;99965.88;5073970;28;1346;-59
2023/03/23 09:07:45;;;;;;;;;;;;;;;9.98;100.00;99971.78;5092060;28;995;-59
2023/03/23 09:10:13;;;;;;;;;;;;;;;9.99;100.00;99976.13;5092089;28;1295;-59
2023/03/23 09:12:40;;;;;;;;;;;;;;;10.11;100.00;99979.69;5092270;28;856;-59
2023/03/23 09:15:08;;;;;;;;;;;;;;;10.12;100.00;99973.78;5092239;28;895;-59
2023/03/23 09:17:36;;;;;;;;;;;;;;;9.97;100.00;99978.50;5091883;28;1965;-59
2023/03/23 09:20:07;;;;;;;;;;;;;;;10.07;100.00;99976.13;5091978;28;866;-59
2023/03/23 09:22:35;;;;;;;;;;;;;;;10.32;100.00;99971.41;5091725;28;957;-59
2023/03/23 09:25:01;;;;;;;;;;;;;;;10.60;100.00;99967.81;5091990;28;867;-59
2023/03/23 09:27:27;;;;;;;;;;;;;;;11.17;100.00;99964.06;5091814;28;963;-59
2023/03/23 09:29:55;;;;;;;;;;;;;;;11.51;100.00;99962.69;5073666;28;832;-59
2023/03/23 09:32:22;;;;;;;;;;;;;;;11.68;100.00;99974.84;5091731;28;816;-59
2023/03/23 09:34:48;;;;;;;;;;;;;;;11.69;100.00;99970.88;5091602;28;984;-57
2023/03/23 09:37:48;;;;;;;;;;;;;;;11.85;100.00;99968.38;5091574;28;918;-59
2023/03/23 10:12:06;;;;;;;;;;;;;;;11.24;100.00;99968.75;5051674;28;614;-58
2023/03/23 10:14:39;;;;;;;;;;;;;;;11.04;100.00;99969.25;5051469;28;835;-58
2023/03/23 10:17:14;;;;;;;;;;;;;;;11.18;100.00;99968.41;5050079;28;926;-58
2023/03/23 10:19:51;;;;;;;;;;;;;;;11.27;100.00;99967.19;5051109;28;1913;-58
2023/03/23 10:22:24;;;;;;;;;;;;;;;11.18;100.00;99973.94;5051209;28;878;-58
2023/03/23 10:25:16;;;;;;;;;;;;;;;11.35;100.00;99977.00;5051249;28;796;-59
2023/03/23 10:27:52;;;;;;;;;;;;;;;11.42;100.00;99977.75;5042423;28;1956;-59
2023/03/23 10:30:28;;;;;;;;;;;;;;;11.65;100.00;99974.47;5051116;28;807;-59
2023/03/23 10:32:57;;;;;;;;;;;;;;;11.85;100.00;99976.69;5050918;28;969;-58
2023/03/23 10:35:33;;;;;;;;;;;;;;;11.99;100.00;99968.31;5050184;28;883;-58
2023/03/23 10:38:09;;;;;;;;;;;;;;;12.20;100.00;99974.84;5050913;28;1886;-59
2023/03/23 10:40:41;;;;;;;;;;;;;;;12.30;100.00;99979.53;5049697;28;930;-59
2023/03/23 10:43:09;;;;;;;;;;;;;;;12.36;100.00;99975.13;5049850;28;859;-59
2023/03/23 10:45:36;;;;;;;;;;;;;;;12.33;100.00;99969.59;5050931;28;874;-59
2023/03/23 10:48:02;;;;;;;;;;;;;;;12.35;100.00;99973.53;5051376;28;944;-59
2023/03/23 10:50:31;;;;;;;;;;;;;;;12.39;100.00;99968.75;5054656;28;863;-59
2023/03/23 10:52:58;;;;;;;;;;;;;;;12.18;100.00;99969.75;5053469;28;812;-59
2023/03/23 10:55:35;;;;;;;;;;;;;;;11.69;100.00;99963.34;5054468;28;878;-59
2023/03/23 10:58:11;;;;;;;;;;;;;;;11.64;100.00;99964.56;5054455;28;1878;-59
2023/03/23 11:00:44;;;;;;;;;;;;;;;11.78;100.00;99962.91;5054396;28;941;-59
2023/03/23 11:03:14;;;;;;;;;;;;;;;12.02;100.00;99961.94;5054408;28;866;-59
2023/03/23 11:05:50;;;;;;;;;;;;;;;12.13;100.00;99958.31;5054386;28;877;-59
2023/03/23 11:08:24;;;;;;;;;;;;;;;12.09;100.00;99954.78;5054522;28;964;-59
2023/03/23 11:10:52;;;;;;;;;;;;;;;12.19;100.00;99951.13;5083690;28;1385;-59
2023/03/23 11:13:20;;;;;;;;;;;;;;;12.21;100.00;99952.28;5094631;28;843;-59
2023/03/23 11:15:47;;;;;;;;;;;;;;;12.34;100.00;99955.34;5094577;28;819;-59
2023/03/23 11:18:26;;;;;;;;;;;;;;;12.73;100.00;99943.03;5094276;28;1966;-59
2023/03/23 11:20:56;;;;;;;;;;;;;;;13.18;100.00;99942.88;5094282;28;851;-59
2023/03/23 11:23:26;;;;;;;;;;;;;;;13.24;100.00;99938.44;5094296;28;902;-59
2023/03/23 11:26:09;;;;;;;;;;;;;;;13.48;100.00;99932.97;5094278;28;827;-59
2023/03/23 11:28:39;;;;;;;;;;;;;;;13.83;100.00;99928.09;5094166;28;836;-60
2023/03/23 11:31:06;;;;;;;;;;;;;;;13.65;100.00;99929.13;5075943;28;1608;-59
2023/03/23 11:33:41;;;;;;;;;;;;;;;13.42;100.00;99932.69;5094017;28;823;-60
2023/03/23 11:36:08;;;;;;;;;;;;;;;13.53;100.00;99920.59;5094006;28;827;-60
2023/03/23 11:38:36;;;;;;;;;;;;;;;14.05;100.00;99917.41;5075673;28;1946;-60
2023/03/23 11:41:08;;;;;;;;;;;;;;;14.47;100.00;99920.63;5075872;28;867;-59
2023/03/23 11:43:39;;;;;;;;;;;;;;;14.32;100.00;99917.31;5093914;28;827;-60
2023/03/23 11:46:11;;;;;;;;;;;;;;;13.72;100.00;99910.78;5093698;28;939;-59
2023/03/23 11:48:41;;;;;;;;;;;;;;;13.64;100.00;99913.69;5094123;28;883;-59
2023/03/23 11:51:07;;;;;;;;;;;;;;;13.78;100.00;99909.88;5093747;28;844;-59
2023/03/23 11:53:35;;;;;;;;;;;;;;;13.85;100.00;99904.22;5093857;28;819;-59
2023/03/23 11:56:04;;;;;;;;;;;;;;;13.83;100.00;99912.19;5093703;28;898;-59
2023/03/23 11:58:32;;;;;;;;;;;;;;;14.19;100.00;99913.56;5093430;28;1882;-59
2023/03/23 12:01:02;;;;;;;;;;;;;;;14.04;100.00;99919.41;5092468;28;827;-59
2023/03/23 12:03:47;;;;;;;;;;;;;;;13.97;100.00;99910.38;5093428;28;890;-59
2023/03/23 12:06:20;;;;;;;;;;;;;;;13.92;100.00;99916.44;5093527;28;814;-59
2023/03/23 12:08:57;;;;;;;;;;;;;;;13.48;100.00;99910.75;5093421;28;938;-59
2023/03/23 12:11:42;;;;;;;;;;;;;;;12.81;100.00;99916.78;5093462;28;1282;-59
2023/03/23 12:14:25;;;;;;;;;;;;;;;12.57;100.00;99918.66;5093301;28;862;-59
2023/03/23 12:17:15;;;;;;;;;;;;;;;12.87;100.00;99915.13;5093119;28;934;-59
2023/03/23 12:19:58;;;;;;;;;;;;;;;13.24;100.00;99909.91;5082668;28;1969;-59
2023/03/23 12:22:25;;;;;;;;;;;;;;;13.49;100.00;99909.56;5093163;28;799;-59
2023/03/23 12:25:18;;;;;;;;;;;;;;;13.29;100.00;99912.22;5093047;28;976;-59
2023/03/23 12:27:44;;;;;;;;;;;;;;;13.26;100.00;99911.03;5062078;28;1208;-59
2023/03/23 12:30:37;;;;;;;;;;;;;;;13.11;100.00;99912.44;5092988;28;811;-59
2023/03/23 12:33:04;;;;;;;;;;;;;;;12.70;100.00;99910.59;5062112;28;1125;-59
2023/03/23 12:35:57;;;;;;;;;;;;;;;12.42;100.00;99915.25;5092983;28;1015;-59
2023/03/23 12:38:34;;;;;;;;;;;;;;;12.36;100.00;99916.91;5062118;28;1881;-59
2023/03/23 12:41:25;;;;;;;;;;;;;;;12.17;100.00;99909.19;5074542;28;934;-59
2023/03/23 12:43:56;;;;;;;;;;;;;;;12.10;100.00;99909.25;5055320;28;1123;-58
2023/03/23 12:46:42;;;;;;;;;;;;;;;12.14;100.00;99910.81;5092630;28;855;-58
2023/03/23 12:49:23;;;;;;;;;;;;;;;12.05;100.00;99904.94;5074660;28;933;-58
2023/03/23 12:51:55;;;;;;;;;;;;;;;11.99;100.00;99912.09;5092747;28;815;-58
2023/03/23 12:54:27;;;;;;;;;;;;;;;11.96;100.00;99907.41;5092507;28;824;-58
2023/03/23 12:57:00;;;;;;;;;;;;;;;11.95;100.00;99901.09;5093059;28;905;-58
2023/03/23 12:59:30;;;;;;;;;;;;;;;12.01;100.00;99901.41;5092252;28;1958;-58
2023/03/23 13:02:02;;;;;;;;;;;;;;;12.23;100.00;99897.25;5074293;28;848;-58
2023/03/23 13:04:36;;;;;;;;;;;;;;;12.25;100.00;99897.63;5092295;28;902;-58
2023/03/23 13:07:05;;;;;;;;;;;;;;;12.23;100.00;99897.25;5092852;28;852;-58
2023/03/23 13:09:49;;;;;;;;;;;;;;;12.34;100.00;99905.44;5092120;28;1274;-58
2023/03/23 13:12:16;;;;;;;;;;;;;;;12.23;100.00;99902.78;5091775;28;1192;-58
2023/03/23 13:15:01;;;;;;;;;;;;;;;12.01;100.00;99901.41;5092175;28;878;-58
2023/03/23 13:17:40;;;;;;;;;;;;;;;11.83;100.00;99896.78;5092095;28;863;-58
2023/03/23 13:20:25;;;;;;;;;;;;;;;11.70;100.00;99889.41;5092142;28;998;-58
2023/03/23 13:23:05;;;;;;;;;;;;;;;11.38;100.00;99893.19;5092042;28;847;-58
2023/03/23 13:25:32;;;;;;;;;;;;;;;11.17;100.00;99894.88;5091847;28;1615;-58
2023/03/23 13:28:02;;;;;;;;;;;;;;;10.99;100.00;99889.47;5091842;28;1024;-58
2023/03/23 13:30:30;;;;;;;;;;;;;;;10.91;100.00;99884.38;5092234;28;839;-58
2023/03/23 13:33:04;;;;;;;;;;;;;;;10.68;100.00;99884.88;5092006;28;941;-58
2023/03/23 13:35:36;;;;;;;;;;;;;;;10.62;100.00;99890.81;5091636;28;910;-58
2023/03/23 13:38:12;;;;;;;;;;;;;;;10.72;100.00;99891.94;5073822;28;1952;-58
2023/03/23 13:40:42;;;;;;;;;;;;;;;10.76;100.00;99891.94;5092143;28;835;-58
2023/03/23 13:43:10;;;;;;;;;;;;;;;10.69;100.00;99889.19;5091741;28;804;-58
2023/03/23 13:45:43;;;;;;;;;;;;;;;10.66;100.00;99895.53;5091658;28;902;-58
2023/03/23 13:48:12;;;;;;;;;;;;;;;10.63;100.00;99894.38;5091860;28;838;-58